createdAt,value
2018-07-22T00:01:48.283Z,78.31
2018-07-22T00:04:16.837Z,78.00
2018-07-22T00:06:46.396Z,78.48
2018-07-22T00:09:15.052Z,78.82
2018-07-22T00:11:43.803Z,78.23
2018-07-22T00:14:12.396Z,78.27
2018-07-22T00:16:40.971Z,78.90
2018-07-22T00:19:09.692Z,78.65
2018-07-22T00:21:38.275Z,78.11
2018-07-22T00:24:06.913Z,78.55
2018-07-22T00:26:35.576Z,78.27
2018-07-22T00:29:04.275Z,78.37
2018-07-22T00:31:32.824Z,78.59
2018-07-22T00:34:01.489Z,78.47
2018-07-22T00:36:30.060Z,78.51
2018-07-22T00:38:58.717Z,78.51
2018-07-22T00:41:27.868Z,78.82
2018-07-22T00:43:56.543Z,78.59
2018-07-22T00:46:25.189Z,78.58
2018-07-22T00:48:54.031Z,78.32
2018-07-22T00:51:22.776Z,79.52
2018-07-22T00:53:51.340Z,79.83
2018-07-22T00:56:19.979Z,79.72
2018-07-22T00:58:49.088Z,80.13
2018-07-22T01:01:18.559Z,79.46
2018-07-22T01:03:47.198Z,79.91
2018-07-22T01:06:16.180Z,79.60
2018-07-22T01:08:44.853Z,79.55
2018-07-22T01:11:14.863Z,79.32
2018-07-22T01:13:43.931Z,79.20
2018-07-22T01:16:12.886Z,79.09
2018-07-22T01:18:41.589Z,79.57
2018-07-22T01:21:10.564Z,79.50
2018-07-22T01:23:39.365Z,79.94
2018-07-22T01:26:09.389Z,79.88
2018-07-22T01:28:38.172Z,80.12
2018-07-22T01:31:06.916Z,80.06
2018-07-22T01:33:35.502Z,79.35
2018-07-22T01:36:04.092Z,79.62
2018-07-22T01:38:32.668Z,79.21
2018-07-22T01:41:01.242Z,79.48
2018-07-22T01:43:30.008Z,79.27
2018-07-22T01:45:58.664Z,79.20
2018-07-22T01:48:27.282Z,79.53
2018-07-22T01:50:55.838Z,79.22
2018-07-22T01:53:24.456Z,79.08
2018-07-22T01:55:53.051Z,79.43
2018-07-22T01:58:21.673Z,79.66
2018-07-22T02:00:50.528Z,79.42
2018-07-22T02:03:19.094Z,79.83
2018-07-22T02:05:51.614Z,79.41
2018-07-22T02:08:21.077Z,79.76
2018-07-22T02:10:49.986Z,79.38
2018-07-22T02:13:18.924Z,79.80
2018-07-22T02:15:47.667Z,79.30
2018-07-22T02:18:16.268Z,79.42
2018-07-22T02:20:44.825Z,79.39
2018-07-22T02:23:14.445Z,80.00
2018-07-22T02:25:42.998Z,79.27
2018-07-22T02:28:11.620Z,79.39
2018-07-22T02:30:40.191Z,78.51
2018-07-22T02:33:08.816Z,78.47
2018-07-22T02:35:37.561Z,78.81
2018-07-22T02:38:06.133Z,79.15
2018-07-22T02:40:34.876Z,79.71
2018-07-22T02:43:03.441Z,79.53
2018-07-22T02:45:32.014Z,79.72
2018-07-22T02:48:00.591Z,79.89
2018-07-22T02:50:29.202Z,79.66
2018-07-22T02:52:57.809Z,79.77
2018-07-22T02:55:26.406Z,79.68
2018-07-22T02:57:55.019Z,80.29
2018-07-22T03:00:23.627Z,80.34
2018-07-22T03:02:52.179Z,80.74
2018-07-22T03:05:21.066Z,80.24
2018-07-22T03:07:49.605Z,80.31
2018-07-22T03:10:18.355Z,80.25
2018-07-22T03:12:46.906Z,80.01
2018-07-22T03:15:16.755Z,78.54
2018-07-22T03:17:45.313Z,79.27
2018-07-22T03:20:13.872Z,79.84
2018-07-22T03:22:42.470Z,80.42
2018-07-22T03:25:11.289Z,80.63
2018-07-22T03:27:40.019Z,79.53
2018-07-22T03:30:08.620Z,79.98
2018-07-22T03:32:37.259Z,78.85
2018-07-22T03:35:05.961Z,78.82
2018-07-22T03:37:34.581Z,79.84
2018-07-22T03:40:03.215Z,79.64
2018-07-22T03:42:31.773Z,79.87
2018-07-22T03:45:00.392Z,80.24
2018-07-22T03:47:29.012Z,80.12
2018-07-22T03:49:57.587Z,79.47
2018-07-22T03:52:26.171Z,79.35
2018-07-22T03:54:54.741Z,79.07
2018-07-22T03:57:23.629Z,78.93
2018-07-22T03:59:52.221Z,77.62
2018-07-22T04:02:21.977Z,77.72
2018-07-22T04:04:50.533Z,78.35
2018-07-22T04:07:20.766Z,79.25
2018-07-22T04:09:49.341Z,79.36
2018-07-22T04:12:18.032Z,79.71
2018-07-22T04:14:46.626Z,79.56
2018-07-22T04:17:15.763Z,78.66
2018-07-22T04:19:44.530Z,78.50
2018-07-22T04:22:13.100Z,78.60
2018-07-22T04:24:41.696Z,79.03
2018-07-22T04:27:10.344Z,79.07
2018-07-22T04:29:38.950Z,78.47
2018-07-22T04:32:07.533Z,78.53
2018-07-22T04:34:36.110Z,77.46
2018-07-22T04:37:04.902Z,78.52
2018-07-22T04:39:33.468Z,78.48
2018-07-22T04:42:02.057Z,78.63
2018-07-22T04:44:30.637Z,78.89
2018-07-22T04:46:59.203Z,78.99
2018-07-22T04:49:27.872Z,79.50
2018-07-22T04:51:56.460Z,79.05
2018-07-22T04:54:25.307Z,79.01
2018-07-22T04:56:53.862Z,79.46
2018-07-22T04:59:22.528Z,80.35
2018-07-22T05:01:51.172Z,79.90
2018-07-22T05:04:19.745Z,80.46
2018-07-22T05:06:48.364Z,80.30
2018-07-22T05:09:18.522Z,80.71
2018-07-22T05:11:47.120Z,80.69
2018-07-22T05:14:15.817Z,80.19
2018-07-22T05:16:44.408Z,80.15
2018-07-22T05:19:16.416Z,80.55
2018-07-22T05:21:45.153Z,80.02
2018-07-22T05:24:13.802Z,79.29
2018-07-22T05:26:42.433Z,79.82
2018-07-22T05:29:15.009Z,79.35
2018-07-22T05:31:43.566Z,80.12
2018-07-22T05:34:12.205Z,79.64
2018-07-22T05:36:40.799Z,80.19
2018-07-22T05:39:11.573Z,80.40
2018-07-22T05:41:40.627Z,80.31
2018-07-22T05:44:09.225Z,80.27
2018-07-22T05:46:37.982Z,80.18
2018-07-22T05:49:06.620Z,80.24
2018-07-22T05:51:35.237Z,79.85
2018-07-22T05:54:03.946Z,79.89
2018-07-22T05:56:32.492Z,79.95
2018-07-22T05:59:01.110Z,80.10
2018-07-22T06:01:29.681Z,79.51
2018-07-22T06:03:58.242Z,79.41
2018-07-22T06:06:27.856Z,79.33
2018-07-22T06:08:56.456Z,79.35
2018-07-22T06:11:25.024Z,78.49
2018-07-22T06:13:53.609Z,78.74
2018-07-22T06:16:22.277Z,78.55
2018-07-22T06:18:50.884Z,78.83
2018-07-22T06:21:19.433Z,78.19
2018-07-22T06:23:48.032Z,78.08
2018-07-22T06:26:16.621Z,78.16
2018-07-22T06:28:45.282Z,77.76
2018-07-22T06:31:13.988Z,78.10
2018-07-22T06:33:42.547Z,78.21
2018-07-22T06:36:11.104Z,77.94
2018-07-22T06:38:39.660Z,78.12
2018-07-22T06:41:08.357Z,78.44
2018-07-22T06:43:36.953Z,78.27
2018-07-22T06:46:05.556Z,77.74
2018-07-22T06:48:34.121Z,77.44
2018-07-22T06:51:02.696Z,77.11
2018-07-22T06:53:31.439Z,77.39
2018-07-22T06:56:00.000Z,78.01
2018-07-22T06:58:28.589Z,78.14
2018-07-22T07:00:57.193Z,78.23
2018-07-22T07:03:26.032Z,77.42
2018-07-22T07:05:54.765Z,77.88
2018-07-22T07:08:23.461Z,78.34
2018-07-22T07:10:52.263Z,78.59
2018-07-22T07:13:20.796Z,78.60
2018-07-22T07:15:49.430Z,78.60
2018-07-22T07:18:18.000Z,79.13
2018-07-22T07:20:46.599Z,80.00
2018-07-22T07:23:15.984Z,79.41
2018-07-22T07:25:44.613Z,79.47
2018-07-22T07:28:13.176Z,78.97
2018-07-22T07:30:41.957Z,78.13
2018-07-22T07:33:12.228Z,78.01
2018-07-22T07:35:41.029Z,77.94
2018-07-22T07:38:09.640Z,77.91
2018-07-22T07:40:38.524Z,78.49
2018-07-22T07:43:07.328Z,79.30
2018-07-22T07:45:36.150Z,79.20
2018-07-22T07:48:04.940Z,79.04
2018-07-22T07:53:23.692Z,79.23
2018-07-22T07:55:52.255Z,79.09
2018-07-22T07:58:20.905Z,78.22
2018-07-22T08:00:49.463Z,78.70
2018-07-22T08:03:18.876Z,78.21
2018-07-22T08:05:48.297Z,78.02
2018-07-22T08:08:16.869Z,78.80
2018-07-22T08:10:45.457Z,77.91
2018-07-22T08:13:14.953Z,78.15
2018-07-22T08:15:43.596Z,78.58
2018-07-22T08:18:12.361Z,78.14
2018-07-22T08:20:41.627Z,77.48
2018-07-22T08:23:10.992Z,78.51
2018-07-22T08:25:39.727Z,78.77
2018-07-22T08:28:08.497Z,79.00
2018-07-22T08:30:37.141Z,77.87
2018-07-22T08:33:05.872Z,78.58
2018-07-22T08:35:34.432Z,78.63
2018-07-22T08:38:03.007Z,78.21
2018-07-22T08:40:31.631Z,78.03
2018-07-22T08:43:00.468Z,77.55
2018-07-22T08:45:29.066Z,77.87
2018-07-22T08:47:57.671Z,77.82
2018-07-22T08:50:26.328Z,77.58
2018-07-22T08:52:54.890Z,78.81
2018-07-22T08:55:23.447Z,78.05
2018-07-22T08:57:52.138Z,78.07
2018-07-22T09:00:20.743Z,78.22
2018-07-22T09:02:49.304Z,77.45
2018-07-22T09:05:18.015Z,77.09
2018-07-22T09:07:46.788Z,78.69
2018-07-22T09:10:15.416Z,78.01
2018-07-22T09:12:43.988Z,78.85
2018-07-22T09:15:12.685Z,78.98
2018-07-22T09:17:41.303Z,79.29
2018-07-22T09:20:09.913Z,78.54
2018-07-22T09:22:38.700Z,78.04
2018-07-22T09:25:10.889Z,77.84
2018-07-22T09:27:39.459Z,77.24
2018-07-22T09:30:08.422Z,77.60
2018-07-22T09:32:37.264Z,77.85
2018-07-22T09:35:06.001Z,78.06
2018-07-22T09:37:35.257Z,76.17
2018-07-22T09:40:03.975Z,76.79
2018-07-22T09:42:32.752Z,76.07
2018-07-22T09:45:01.349Z,76.48
2018-07-22T09:47:30.014Z,76.75
2018-07-22T09:49:58.652Z,76.06
2018-07-22T09:52:27.288Z,76.95
2018-07-22T09:54:55.845Z,77.01
2018-07-22T09:57:24.594Z,76.54
2018-07-22T09:59:53.309Z,76.12
2018-07-22T10:02:22.783Z,76.36
2018-07-22T10:04:51.408Z,74.19
2018-07-22T10:07:20.065Z,74.49
2018-07-22T10:09:48.651Z,74.08
2018-07-22T10:12:17.202Z,74.61
2018-07-22T10:14:46.114Z,74.96
2018-07-22T10:17:14.636Z,74.83
2018-07-22T10:19:43.788Z,74.46
2018-07-22T10:22:12.472Z,75.41
2018-07-22T10:24:41.069Z,76.13
2018-07-22T10:27:09.720Z,75.58
2018-07-22T10:29:38.480Z,76.81
2018-07-22T10:32:07.577Z,77.29
2018-07-22T10:34:36.246Z,77.02
2018-07-22T10:37:04.869Z,76.99
2018-07-22T10:39:33.473Z,75.57
2018-07-22T10:42:02.055Z,75.25
2018-07-22T10:44:30.613Z,75.11
2018-07-22T10:46:59.345Z,74.76
2018-07-22T10:49:27.900Z,74.73
2018-07-22T10:51:56.490Z,74.27
2018-07-22T10:54:25.154Z,75.12
2018-07-22T10:56:53.778Z,75.69
2018-07-22T10:59:22.452Z,74.18
2018-07-22T11:01:51.324Z,74.25
2018-07-22T11:04:20.074Z,73.74
2018-07-22T11:06:48.658Z,74.61
2018-07-22T11:09:17.246Z,75.03
2018-07-22T11:11:46.029Z,75.00
2018-07-22T11:14:14.645Z,74.43
2018-07-22T11:16:43.288Z,75.42
2018-07-22T11:19:11.909Z,75.59
2018-07-22T11:21:40.450Z,75.85
2018-07-22T11:24:09.124Z,74.86
2018-07-22T11:26:38.407Z,74.16
2018-07-22T11:29:07.090Z,74.59
2018-07-22T11:31:35.658Z,75.00
2018-07-22T11:34:04.299Z,75.63
2018-07-22T11:36:32.942Z,75.59
2018-07-22T11:39:01.629Z,75.50
2018-07-22T11:41:30.650Z,75.81
2018-07-22T11:43:59.261Z,76.44
2018-07-22T11:46:27.956Z,75.73
2018-07-22T11:48:56.623Z,76.38
2018-07-22T11:51:25.295Z,77.12
2018-07-22T11:53:53.925Z,74.39
2018-07-22T11:56:22.740Z,76.32
2018-07-22T11:58:51.325Z,75.89
2018-07-22T12:01:20.274Z,76.25
2018-07-22T12:03:48.900Z,76.27
2018-07-22T12:06:18.447Z,75.58
2018-07-22T12:08:47.041Z,75.89
2018-07-22T12:11:16.724Z,75.22
2018-07-22T12:13:45.312Z,75.55
2018-07-22T12:16:13.921Z,75.95
2018-07-22T12:18:42.641Z,76.08
2018-07-22T12:21:11.572Z,76.36
2018-07-22T12:23:40.139Z,76.93
2018-07-22T12:26:08.809Z,75.96
2018-07-22T12:28:37.417Z,76.22
2018-07-22T12:31:06.008Z,77.06
2018-07-22T12:33:34.788Z,76.86
2018-07-22T12:36:03.547Z,76.49
2018-07-22T12:38:32.187Z,74.84
2018-07-22T12:41:00.973Z,75.53
2018-07-22T12:43:29.619Z,75.39
2018-07-22T12:45:58.211Z,75.36
2018-07-22T12:48:26.820Z,76.34
2018-07-22T12:50:55.384Z,75.93
2018-07-22T12:53:23.957Z,76.29
2018-07-22T12:55:52.572Z,75.66
2018-07-22T12:58:21.382Z,75.91
2018-07-22T13:00:50.319Z,75.89
2018-07-22T13:03:19.091Z,74.67
2018-07-22T13:05:47.660Z,75.79
2018-07-22T13:08:16.224Z,76.33
2018-07-22T13:10:44.944Z,75.59
2018-07-22T13:13:13.772Z,75.05
2018-07-22T13:15:42.409Z,74.85
2018-07-22T13:18:11.005Z,75.13
2018-07-22T13:20:39.591Z,76.25
2018-07-22T13:23:09.089Z,75.65
2018-07-22T13:25:38.076Z,75.90
2018-07-22T13:28:06.875Z,74.99
2018-07-22T13:30:35.515Z,75.36
2018-07-22T13:33:04.188Z,74.25
2018-07-22T13:35:33.372Z,74.32
2018-07-22T13:38:02.045Z,75.01
2018-07-22T13:40:31.177Z,75.08
2018-07-22T13:42:59.845Z,74.71
2018-07-22T13:45:28.859Z,75.01
2018-07-22T13:47:57.583Z,74.64
2018-07-22T13:50:26.462Z,75.20
2018-07-22T13:52:55.124Z,75.07
2018-07-22T13:55:23.726Z,74.94
2018-07-22T13:57:52.373Z,74.99
2018-07-22T14:00:21.019Z,75.41
2018-07-22T14:02:49.803Z,75.38
2018-07-22T14:05:18.673Z,75.53
2018-07-22T14:07:47.452Z,75.41
2018-07-22T14:10:16.057Z,75.73
2018-07-22T14:12:44.674Z,76.38
2018-07-22T14:15:13.351Z,76.05
2018-07-22T14:17:42.317Z,76.50
2018-07-22T14:20:10.890Z,75.28
2018-07-22T14:22:39.595Z,74.89
2018-07-22T14:25:08.247Z,75.59
2018-07-22T14:27:36.851Z,74.53
2018-07-22T14:30:06.020Z,74.48
2018-07-22T14:32:35.031Z,74.68
2018-07-22T14:35:03.761Z,74.80
2018-07-22T14:37:32.306Z,74.62
2018-07-22T14:40:01.037Z,74.61
2018-07-22T14:42:29.684Z,75.04
2018-07-22T14:44:58.285Z,75.61
2018-07-22T14:47:26.924Z,76.53
2018-07-22T14:49:55.529Z,76.73
2018-07-22T14:52:24.208Z,76.28
2018-07-22T14:54:52.764Z,76.25
2018-07-22T14:57:21.816Z,75.10
2018-07-22T14:59:50.388Z,75.56
2018-07-22T15:02:19.084Z,75.18
2018-07-22T15:04:47.698Z,74.76
2018-07-22T15:07:17.031Z,74.37
2018-07-22T15:09:45.735Z,74.98
2018-07-22T15:12:14.495Z,75.51
2018-07-22T15:14:43.092Z,76.35
2018-07-22T15:17:12.264Z,76.67
2018-07-22T15:19:40.817Z,76.70
2018-07-22T15:22:09.440Z,77.21
2018-07-22T15:24:38.112Z,77.68
2018-07-22T15:27:06.713Z,78.19
2018-07-22T15:29:35.371Z,78.73
2018-07-22T15:32:04.581Z,79.52
2018-07-22T15:34:33.272Z,78.83
2018-07-22T15:37:01.841Z,79.04
2018-07-22T15:39:30.469Z,79.19
2018-07-22T15:41:59.055Z,79.61
2018-07-22T15:44:27.600Z,79.75
2018-07-22T15:46:56.161Z,79.62
2018-07-22T15:49:25.164Z,79.50
2018-07-22T15:51:53.740Z,78.91
2018-07-22T15:54:22.271Z,79.19
2018-07-22T15:56:51.105Z,78.86
2018-07-22T15:59:20.512Z,78.96
2018-07-22T16:01:49.165Z,78.35
2018-07-22T16:04:17.748Z,77.86
2018-07-22T16:06:47.288Z,77.83
2018-07-22T16:09:15.953Z,77.49
2018-07-22T16:11:44.517Z,77.72
2018-07-22T16:14:13.213Z,77.42
2018-07-22T16:16:42.063Z,77.50
2018-07-22T16:19:10.782Z,76.89
2018-07-22T16:21:40.167Z,77.51
2018-07-22T16:24:08.813Z,78.18
2018-07-22T16:26:37.515Z,77.39
2018-07-22T16:29:06.178Z,77.75
2018-07-22T16:31:34.920Z,78.61
2018-07-22T16:34:03.546Z,77.91
2018-07-22T16:36:32.128Z,78.70
2018-07-22T16:39:00.744Z,79.13
2018-07-22T16:41:29.327Z,79.09
2018-07-22T16:43:57.944Z,79.63
2018-07-22T16:46:26.524Z,78.96
2018-07-22T16:48:55.171Z,79.26
2018-07-22T16:51:24.135Z,79.85
2018-07-22T16:53:53.112Z,79.08
2018-07-22T16:56:22.289Z,78.88
2018-07-22T16:58:50.949Z,79.36
2018-07-22T17:01:19.922Z,80.36
2018-07-22T17:03:48.476Z,80.59
2018-07-22T17:06:17.042Z,80.60
2018-07-22T17:08:45.593Z,80.21
2018-07-22T17:11:14.383Z,80.37
2018-07-22T17:13:42.927Z,80.51
2018-07-22T17:16:11.540Z,80.40
2018-07-22T17:18:40.094Z,80.26
2018-07-22T17:21:08.681Z,80.32
2018-07-22T17:23:37.335Z,80.20
2018-07-22T17:26:05.943Z,79.68
2018-07-22T17:28:34.515Z,79.85
2018-07-22T17:31:03.113Z,79.69
2018-07-22T17:33:31.785Z,79.84
2018-07-22T17:36:00.357Z,80.14
2018-07-22T17:38:28.916Z,79.36
2018-07-22T17:40:57.505Z,79.74
2018-07-22T17:43:26.321Z,79.68
2018-07-22T17:45:54.917Z,79.44
2018-07-22T17:48:23.576Z,79.53
2018-07-22T17:50:52.108Z,79.10
2018-07-22T17:53:20.663Z,79.72
2018-07-22T17:55:49.340Z,80.35
2018-07-22T17:58:18.001Z,79.64
2018-07-22T18:00:46.809Z,79.99
2018-07-22T18:03:24.936Z,81.15
2018-07-22T18:05:56.194Z,81.78
2018-07-22T18:08:25.031Z,81.51
2018-07-22T18:10:54.235Z,81.08
2018-07-22T18:13:22.879Z,80.97
2018-07-22T18:15:51.532Z,80.87
2018-07-22T18:18:20.373Z,80.29
2018-07-22T18:20:49.576Z,80.35
2018-07-22T18:23:18.175Z,80.75
2018-07-22T18:25:47.341Z,80.63
2018-07-22T18:28:16.404Z,80.29
2018-07-22T18:30:45.455Z,80.68
2018-07-22T18:33:14.074Z,80.14
2018-07-22T18:35:42.677Z,79.83
2018-07-22T18:38:11.268Z,80.16
2018-07-22T18:40:39.848Z,80.58
2018-07-22T18:43:08.743Z,80.15
2018-07-22T18:45:37.353Z,80.36
2018-07-22T18:48:05.968Z,80.21
2018-07-22T18:50:35.507Z,80.10
2018-07-22T18:53:04.297Z,80.47
2018-07-22T18:55:32.971Z,80.38
2018-07-22T18:58:01.536Z,80.41
2018-07-22T19:00:30.177Z,80.44
2018-07-22T19:02:58.793Z,79.91
2018-07-22T19:05:28.166Z,80.38
2018-07-22T19:07:56.840Z,79.24
2018-07-22T19:10:25.589Z,80.29
2018-07-22T19:12:54.143Z,79.95
2018-07-22T19:15:22.691Z,81.36
2018-07-22T19:17:51.296Z,81.30
2018-07-22T19:20:19.875Z,82.36
2018-07-22T19:22:48.470Z,83.13
2018-07-22T19:25:17.045Z,82.28
2018-07-22T19:27:45.588Z,82.46
2018-07-22T19:30:14.248Z,82.48
2018-07-22T19:32:42.861Z,82.24
2018-07-22T19:35:11.594Z,81.42
2018-07-22T19:37:40.213Z,81.35
2018-07-22T19:40:08.856Z,81.97
2018-07-22T19:42:37.467Z,81.83
2018-07-22T19:45:06.084Z,81.74
2018-07-22T19:47:34.645Z,81.87
2018-07-22T19:50:03.323Z,81.30
2018-07-22T19:52:31.938Z,81.38
2018-07-22T19:55:00.563Z,81.19
2018-07-22T19:57:29.113Z,81.19
2018-07-22T19:59:57.716Z,81.08
2018-07-22T20:02:27.150Z,81.85
2018-07-22T20:04:56.764Z,81.25
2018-07-22T20:07:26.974Z,81.62
2018-07-22T20:09:55.571Z,81.34
2018-07-22T20:12:24.121Z,81.28
2018-07-22T20:14:52.727Z,81.42
2018-07-22T20:17:21.456Z,81.54
2018-07-22T20:19:50.044Z,81.24
2018-07-22T20:22:18.888Z,81.08
2018-07-22T20:24:47.452Z,80.68
2018-07-22T20:27:16.034Z,80.63
2018-07-22T20:29:44.580Z,81.12
2018-07-22T20:32:13.369Z,79.67
2018-07-22T20:34:42.238Z,79.60
2018-07-22T20:37:10.957Z,79.71
2018-07-22T20:39:39.571Z,81.39
2018-07-22T20:42:08.830Z,79.66
2018-07-22T20:44:37.401Z,81.16
2018-07-22T20:47:06.166Z,82.17
2018-07-22T20:49:34.689Z,82.14
2018-07-22T20:52:03.285Z,82.18
2018-07-22T20:54:31.919Z,82.00
2018-07-22T20:57:00.472Z,81.78
2018-07-22T20:59:29.076Z,81.37
2018-07-22T21:01:57.665Z,81.69
2018-07-22T21:04:26.300Z,81.11
2018-07-22T21:06:54.887Z,81.60
2018-07-22T21:09:23.451Z,81.70
2018-07-22T21:13:01.312Z,81.71
2018-07-22T21:15:30.320Z,82.20
2018-07-22T21:17:58.889Z,82.54
2018-07-22T21:20:28.523Z,81.94
2018-07-22T21:22:57.272Z,82.02
2018-07-22T21:25:26.358Z,81.71
2018-07-22T21:27:54.971Z,82.10
2018-07-22T21:30:23.587Z,81.84
2018-07-22T21:32:52.143Z,81.77
2018-07-22T21:35:21.151Z,82.25
2018-07-22T21:37:49.767Z,81.88
2018-07-22T21:40:18.351Z,81.70
2018-07-22T21:42:47.112Z,81.58
2018-07-22T21:45:15.749Z,81.21
2018-07-22T21:47:44.318Z,81.22
2018-07-22T21:50:12.940Z,81.64
2018-07-22T21:52:41.636Z,81.89
2018-07-22T21:55:10.237Z,82.42
2018-07-22T21:57:38.936Z,82.17
2018-07-22T22:00:30.555Z,82.11
2018-07-22T22:02:59.993Z,81.79
2018-07-22T22:05:29.352Z,81.64
2018-07-22T22:07:58.744Z,82.17
2018-07-22T22:10:27.873Z,82.34
2018-07-22T22:12:56.820Z,81.70
2018-07-22T22:15:27.363Z,82.19
2018-07-22T22:18:01.284Z,81.63
2018-07-22T22:20:30.100Z,81.43
2018-07-22T22:22:58.735Z,81.77
2018-07-22T22:25:27.302Z,81.65
2018-07-22T22:27:55.899Z,81.55
2018-07-22T22:30:24.531Z,81.49
2018-07-22T22:32:53.084Z,81.56
2018-07-22T22:35:21.722Z,81.66
2018-07-22T22:37:50.620Z,82.02
2018-07-22T22:40:19.222Z,81.76
2018-07-22T22:42:48.187Z,82.14
2018-07-22T22:45:16.877Z,81.93
2018-07-22T22:47:45.823Z,81.69
2018-07-22T22:50:14.447Z,82.49
2018-07-22T22:52:43.623Z,82.38
2018-07-22T22:55:13.757Z,81.88
2018-07-22T22:57:52.229Z,82.48
2018-07-22T23:00:20.930Z,82.40
2018-07-22T23:02:49.515Z,82.19
2018-07-22T23:05:18.415Z,81.91
2018-07-22T23:07:47.076Z,81.94
2018-07-22T23:10:15.744Z,82.14
2018-07-22T23:12:44.372Z,82.39
2018-07-22T23:15:13.024Z,82.31
2018-07-22T23:17:41.643Z,82.13
2018-07-22T23:20:10.286Z,82.25
2018-07-22T23:22:38.806Z,82.63
2018-07-22T23:25:07.419Z,82.34
2018-07-22T23:27:35.980Z,82.51
2018-07-22T23:30:04.583Z,82.31
2018-07-22T23:32:33.279Z,82.43
2018-07-22T23:35:01.969Z,82.21
2018-07-22T23:37:30.572Z,82.56
2018-07-22T23:39:59.131Z,82.17
2018-07-22T23:42:27.819Z,82.16
2018-07-22T23:44:56.356Z,82.23
2018-07-22T23:47:24.984Z,82.59
2018-07-22T23:49:53.547Z,82.30
2018-07-22T23:52:22.091Z,82.95
2018-07-22T23:54:50.699Z,82.16
